createdAt,value
2018-12-13T19:10:03.802Z,1.60
2018-12-13T19:15:17.032Z,1.90
2018-12-13T19:17:45.590Z,1.80
2018-12-13T19:20:15.171Z,1.70
2018-12-13T19:22:43.417Z,1.70
2018-12-13T19:25:11.843Z,1.70
2018-12-13T19:27:40.104Z,1.70
2018-12-13T19:30:11.428Z,1.80
2018-12-13T19:32:39.580Z,1.70
2018-12-13T19:35:08.558Z,1.70
2018-12-13T19:37:36.904Z,1.70
2018-12-13T19:40:07.478Z,1.70
2018-12-13T19:42:35.937Z,1.70
2018-12-13T19:45:04.762Z,1.70
2018-12-13T19:47:33.068Z,1.70
2018-12-13T19:50:01.304Z,1.70
2018-12-13T19:52:33.826Z,1.70
2018-12-13T19:55:04.573Z,1.70
2018-12-13T19:57:32.842Z,1.70
2018-12-13T20:00:02.442Z,1.60
2018-12-13T20:02:31.625Z,1.60
2018-12-13T20:04:59.817Z,1.70
2018-12-13T20:07:28.089Z,1.60
2018-12-13T20:09:57.158Z,1.70
2018-12-13T20:12:25.328Z,1.60
2018-12-13T20:14:53.551Z,1.60
2018-12-13T20:17:21.806Z,1.60
2018-12-13T20:19:50.044Z,1.60
2018-12-13T20:22:18.174Z,1.60
2018-12-13T20:24:46.331Z,1.60
2018-12-13T20:27:14.613Z,1.60
2018-12-13T20:29:43.014Z,1.60
2018-12-13T20:32:11.182Z,1.60
2018-12-13T20:34:40.885Z,1.60
2018-12-13T20:37:09.166Z,1.60
2018-12-13T20:39:37.873Z,1.60
2018-12-13T20:42:06.048Z,1.60
2018-12-13T20:44:34.222Z,1.60
2018-12-13T20:47:03.267Z,1.50
2018-12-13T20:49:32.377Z,1.60
2018-12-13T20:52:00.975Z,1.60
2018-12-13T20:54:29.263Z,1.50
2018-12-13T20:56:57.953Z,1.50
2018-12-13T20:59:26.150Z,1.50
2018-12-13T21:01:54.497Z,1.50
2018-12-13T21:04:22.693Z,1.50
2018-12-13T21:06:56.336Z,1.40
2018-12-13T21:09:26.415Z,1.50
2018-12-13T21:11:54.674Z,1.40
2018-12-13T21:14:22.926Z,1.50
2018-12-13T21:16:51.083Z,1.40
2018-12-13T21:19:19.322Z,1.40
2018-12-13T21:21:50.075Z,1.40
2018-12-13T21:24:18.198Z,1.40
2018-12-13T21:26:47.167Z,1.40
2018-12-13T21:29:15.472Z,1.40
2018-12-13T21:31:43.800Z,1.50
2018-12-13T21:34:12.276Z,1.40
2018-12-13T21:36:40.458Z,1.40
2018-12-13T21:39:09.288Z,1.50
2018-12-13T21:41:38.065Z,1.50
2018-12-13T21:44:06.438Z,1.50
2018-12-13T21:46:34.840Z,1.40
2018-12-13T21:49:03.600Z,1.40
2018-12-13T21:51:31.817Z,1.50
2018-12-13T21:53:59.994Z,1.50
2018-12-13T21:56:28.880Z,1.50
2018-12-13T21:59:03.503Z,1.50
2018-12-13T22:01:27.429Z,1.40
2018-12-13T22:03:55.928Z,1.50
2018-12-13T22:06:24.077Z,1.50
2018-12-13T22:08:52.437Z,1.50
2018-12-13T22:11:20.615Z,1.50
2018-12-13T22:13:48.933Z,1.50
2018-12-13T22:16:17.099Z,1.50
2018-12-13T22:18:45.454Z,1.50
2018-12-13T22:21:13.643Z,1.50
2018-12-13T22:23:41.832Z,1.50
2018-12-13T22:26:10.007Z,1.50
2018-12-13T22:28:38.427Z,1.50
2018-12-13T22:31:07.582Z,1.50
2018-12-13T22:33:35.737Z,1.50
2018-12-13T22:36:04.761Z,1.50
2018-12-13T22:38:33.088Z,1.50
2018-12-13T22:41:01.416Z,1.50
2018-12-13T22:43:30.461Z,1.50
2018-12-13T22:46:00.575Z,1.50
2018-12-13T22:48:28.935Z,1.50
2018-12-13T22:50:57.096Z,1.50
2018-12-13T22:53:25.233Z,1.50
2018-12-13T22:55:53.508Z,1.50
2018-12-13T22:58:21.843Z,1.50
2018-12-13T23:00:50.061Z,1.50
2018-12-13T23:03:18.206Z,1.50
2018-12-13T23:05:46.531Z,1.50
2018-12-13T23:08:15.034Z,1.50
2018-12-13T23:10:43.231Z,1.50
2018-12-13T23:13:11.949Z,1.50
2018-12-13T23:15:40.155Z,1.40
2018-12-13T23:18:08.365Z,1.50
2018-12-13T23:20:36.500Z,1.50
2018-12-13T23:23:04.641Z,1.50
2018-12-13T23:25:32.864Z,1.50
2018-12-13T23:28:01.127Z,1.40
2018-12-13T23:30:29.258Z,1.40
2018-12-13T23:32:57.483Z,1.30
2018-12-13T23:35:25.622Z,1.30
2018-12-13T23:37:53.965Z,1.20
2018-12-13T23:40:22.103Z,1.20
2018-12-13T23:42:50.226Z,1.20
2018-12-13T23:48:00.157Z,1.10
2018-12-13T23:50:28.324Z,1.10
2018-12-13T23:52:56.614Z,1.10
2018-12-13T23:55:24.863Z,1.10
2018-12-13T23:57:53.064Z,1.10
